Westerville, NE (68881)

6:47 PM CDT on September 18, 2014 (GMT -0500)
Broken Bow Municipal | Change Station
CLOSE
Current Station
Airport
Location: Broken Bow,
Elevation: 2546 ft
Nearby Weather Stations

Elev 2546 ft 41.44 °N, 99.64 °W | Updated 54 minutes ago

Mostly Cloudy
Mostly Cloudy
71 °F
Feels Like 71 °F
N
16
Wind Variable Wind from SSE
Gusts 23 mph

Today
High -- | Low -- °F
--% Chance of Precip.
Yesterday
High -- | Low -- °F
Precip. -- in
7:21 AM 7:41 PM
Waning Crescent, 23% visible
Pressure 29.87 in
Visibility 10.0 miles
Clouds Overcast 2100 ft
Dew Point 63 °F
Humidity 75%
Rainfall 0.00 in
Snow Depth Not available.
UV 0 out of 12
Pollen 5.60 out of 12
Air Quality Not available.
Flu Activity Not available.
METAR KBBW 182253Z AUTO 16014G20KT 10SM OVC021 22/17 A2991 RMK AO2 SLP113 T02170172

More Conditions Fewer Conditions

Pressure 29.87 in
Visibility 10.0 miles
Clouds Overcast 2100 ft
Dew Point 63 °F
Humidity 75%
Rainfall 0.00 in
Snow Depth Not available.
UV 0 out of 12
Pollen 5.60 out of 12
Air Quality Not available.
Flu Activity Not available.
METAR KBBW 182253Z AUTO 16014G20KT 10SM OVC021 22/17 A2991 RMK AO2 SLP113 T02170172

More Conditions Fewer Conditions

10-Day Weather Forecast

Almanac

Astronomy

Sep. 18, 2014 Rise Set
Actual Time 7:21 AM CDT 7:41 PM CDT
Civil Twilight 6:53 AM CDT 8:09 PM CDT
Nautical Twilight 6:20 AM CDT 8:41 PM CDT
Astronomical Twilight 5:47 AM CDT 9:14 PM CDT
Moon 2:11 AM CDT 4:36 PM CDT
Length of Visible Light 13h 15m
Length of Day
12h 20m
Tomorrow will be 2m 45s shorter.
Waning Crescent, 23% of the Moon is Illuminated
Today
Waning Crescent
Sep 24
New
Oct 1
First Quarter
Oct 8
Full
Oct 15
Last Quarter

Today's Extremes

State Highs State Lows

Community

WunderPhotos

Upload Photos

1,754,489 photos uploaded!

WunderBlogs® & News

Nearby

Snow Depth

Station Depth Elevation
No new snow has been reported.

Earthquake Activity

City Distance Mag. Time & Date
No recent earthquake activity has been reported nearby.
Minimum magnitude displayed is 2.5.

Coastal Water Temperatures

Place Temperature
No Stations Reporting

Nearby Weather Stations